createdAt,value
2023-05-02T00:00:24.122Z,98156.00
2023-05-02T00:03:01.872Z,98163.00
2023-05-02T00:05:38.103Z,98157.00
2023-05-02T00:08:14.132Z,98149.00
2023-05-02T00:10:50.062Z,98155.00
2023-05-02T00:13:25.997Z,98154.00
2023-05-02T00:16:01.983Z,98143.00
2023-05-02T00:18:37.889Z,98144.00
2023-05-02T00:21:14.161Z,98148.00
2023-05-02T00:23:51.887Z,98152.00
2023-05-02T00:26:28.844Z,98146.00
2023-05-02T00:29:05.256Z,98150.00
2023-05-02T00:31:41.718Z,98156.00
2023-05-02T00:34:17.684Z,98149.00
2023-05-02T00:36:53.601Z,98149.00
2023-05-02T00:39:29.498Z,98158.00
2023-05-02T00:42:06.188Z,98153.00
2023-05-02T00:44:42.731Z,98153.00
2023-05-02T00:47:18.657Z,98157.00
2023-05-02T00:49:54.662Z,98151.00
2023-05-02T00:52:30.575Z,98153.00
2023-05-02T00:55:06.957Z,98156.00
2023-05-02T00:57:43.019Z,98152.00
2023-05-02T01:00:19.027Z,98154.00
2023-05-02T01:03:20.756Z,98147.00
2023-05-02T01:06:16.716Z,98155.00
2023-05-02T01:09:52.175Z,98164.00
2023-05-02T01:12:42.090Z,98161.00
2023-05-02T01:15:22.664Z,98160.00
2023-05-02T01:18:02.192Z,98165.00
2023-05-02T01:20:42.833Z,98166.00
2023-05-02T01:23:57.690Z,98176.00
2023-05-02T01:26:50.323Z,98162.00
2023-05-02T01:29:29.735Z,98167.00
2023-05-02T01:32:07.895Z,98163.00
2023-05-02T01:34:46.341Z,98170.00
2023-05-02T01:37:24.220Z,98170.00
2023-05-02T01:40:03.767Z,98172.00
2023-05-02T01:42:40.225Z,98169.00
2023-05-02T01:45:17.365Z,98166.00
2023-05-02T01:47:54.839Z,98174.00
2023-05-02T01:50:31.448Z,98169.00
2023-05-02T01:53:08.132Z,98175.00
2023-05-02T01:55:45.886Z,98173.00
2023-05-02T01:58:23.681Z,98175.00
2023-05-02T02:01:01.622Z,98176.00
2023-05-02T02:03:37.733Z,98177.00
2023-05-02T02:06:16.106Z,98186.00
2023-05-02T02:08:52.389Z,98175.00
2023-05-02T02:11:39.338Z,98175.00
2023-05-02T02:14:22.270Z,98183.00
2023-05-02T02:17:02.249Z,98185.00
2023-05-02T02:19:40.828Z,98195.00
2023-05-02T02:22:19.431Z,98200.00
2023-05-02T02:24:56.522Z,98203.00
2023-05-02T02:27:33.014Z,98205.00
2023-05-02T02:30:11.401Z,98208.00
2023-05-02T02:32:47.310Z,98208.00
2023-05-02T02:35:23.661Z,98209.00
2023-05-02T02:38:29.156Z,98217.00
2023-05-02T02:41:28.547Z,98217.00
2023-05-02T02:44:28.717Z,98216.00
2023-05-02T02:47:17.328Z,98223.00
2023-05-02T02:50:31.884Z,98230.00
2023-05-02T02:53:19.167Z,98230.00
2023-05-02T02:56:05.330Z,98235.00
2023-05-02T02:59:02.353Z,98243.00
2023-05-02T03:01:43.605Z,98246.00
2023-05-02T03:04:22.001Z,98244.00
2023-05-02T03:06:58.258Z,98254.00
2023-05-02T03:09:46.881Z,98261.00
2023-05-02T03:12:28.447Z,98264.00
2023-05-02T03:15:47.827Z,98269.00
2023-05-02T03:18:23.825Z,98272.00
2023-05-02T03:21:01.029Z,98267.00
2023-05-02T03:23:37.045Z,98273.00
2023-05-02T03:26:13.679Z,98281.00
2023-05-02T03:28:51.468Z,98279.00
2023-05-02T03:31:33.061Z,98280.00
2023-05-02T03:34:09.323Z,98281.00
2023-05-02T03:36:46.598Z,98287.00
2023-05-02T03:39:22.755Z,98287.00
2023-05-02T03:41:59.103Z,98298.00
2023-05-02T03:44:35.563Z,98293.00
2023-05-02T03:47:13.704Z,98299.00
2023-05-02T03:49:53.026Z,98302.00
2023-05-02T03:52:29.260Z,98304.00
2023-05-02T03:55:07.827Z,98313.00
2023-05-02T03:57:43.947Z,98318.00
2023-05-02T04:00:22.860Z,98309.00
2023-05-02T04:03:07.186Z,98320.00
2023-05-02T04:05:45.663Z,98320.00
2023-05-02T04:08:23.645Z,98322.00
2023-05-02T04:10:59.886Z,98321.00
2023-05-02T04:13:36.380Z,98321.00
2023-05-02T04:16:13.171Z,98317.00
2023-05-02T04:18:49.421Z,98327.00
2023-05-02T04:21:26.182Z,98321.00
2023-05-02T04:24:02.130Z,98322.00
2023-05-02T04:26:39.085Z,98328.00
2023-05-02T04:29:18.749Z,98330.00
2023-05-02T04:31:55.152Z,98331.00
2023-05-02T04:34:33.846Z,98330.00
2023-05-02T04:37:09.930Z,98330.00
2023-05-02T04:39:46.206Z,98333.00
2023-05-02T04:42:28.361Z,98332.00
2023-05-02T04:45:21.015Z,98330.00
2023-05-02T04:47:58.330Z,98341.00
2023-05-02T04:50:34.562Z,98343.00
2023-05-02T04:53:11.184Z,98339.00
2023-05-02T04:55:47.805Z,98341.00
2023-05-02T04:58:23.772Z,98348.00
2023-05-02T05:01:07.156Z,98343.00
2023-05-02T05:03:44.015Z,98353.00
2023-05-02T05:06:20.598Z,98349.00
2023-05-02T05:08:57.273Z,98367.00
2023-05-02T05:11:33.241Z,98364.00
2023-05-02T05:14:09.635Z,98368.00
2023-05-02T05:16:48.141Z,98367.00
2023-05-02T05:19:24.070Z,98382.00
2023-05-02T05:22:00.880Z,98389.00
2023-05-02T05:24:36.801Z,98388.00
2023-05-02T05:27:12.744Z,98386.00
2023-05-02T05:29:48.765Z,98396.00
2023-05-02T05:32:26.521Z,98407.00
2023-05-02T05:35:04.510Z,98406.00
2023-05-02T05:37:40.476Z,98408.00
2023-05-02T05:40:21.214Z,98413.00
2023-05-02T05:43:04.209Z,98419.00
2023-05-02T05:45:43.984Z,98414.00
2023-05-02T05:48:20.613Z,98415.00
2023-05-02T05:50:56.657Z,98424.00
2023-05-02T05:53:33.381Z,98429.00
2023-05-02T05:56:13.305Z,98433.00
2023-05-02T05:58:58.827Z,98434.00
2023-05-02T06:01:35.866Z,98437.00
2023-05-02T06:04:13.400Z,98444.00
2023-05-02T06:06:53.885Z,98447.00
2023-05-02T06:09:29.808Z,98451.00
2023-05-02T06:12:05.890Z,98453.00
2023-05-02T06:14:43.223Z,98445.00
2023-05-02T06:17:19.146Z,98451.00
2023-05-02T06:19:55.078Z,98455.00
2023-05-02T06:22:31.547Z,98457.00
2023-05-02T06:25:08.877Z,98456.00
2023-05-02T06:27:44.782Z,98460.00
2023-05-02T06:30:20.835Z,98471.00
2023-05-02T06:32:56.715Z,98461.00
2023-05-02T06:35:32.800Z,98475.00
2023-05-02T06:38:08.680Z,98479.00
2023-05-02T06:40:45.378Z,98474.00
2023-05-02T06:43:21.526Z,98480.00
2023-05-02T06:45:57.763Z,98487.00
2023-05-02T06:48:35.736Z,98478.00
2023-05-02T06:51:11.913Z,98486.00
2023-05-02T06:53:47.889Z,98494.00
2023-05-02T06:56:27.528Z,98490.00
2023-05-02T06:59:03.416Z,98491.00
2023-05-02T07:01:39.485Z,98492.00
2023-05-02T07:04:15.692Z,98493.00
2023-05-02T07:06:51.758Z,98511.00
2023-05-02T07:09:27.704Z,98512.00
2023-05-02T07:12:06.626Z,98514.00
2023-05-02T07:14:42.985Z,98517.00
2023-05-02T07:17:18.903Z,98521.00
2023-05-02T07:19:54.789Z,98535.00
2023-05-02T07:22:30.668Z,98527.00
2023-05-02T07:25:06.890Z,98529.00
2023-05-02T07:27:42.817Z,98539.00
2023-05-02T07:30:18.799Z,98523.00
2023-05-02T07:32:54.651Z,98529.00
2023-05-02T07:35:30.867Z,98523.00
2023-05-02T07:38:06.774Z,98538.00
2023-05-02T07:40:43.485Z,98544.00
2023-05-02T07:43:19.351Z,98531.00
2023-05-02T07:45:56.241Z,98543.00
2023-05-02T07:48:32.290Z,98542.00
2023-05-02T07:51:11.703Z,98540.00
2023-05-02T07:53:50.473Z,98538.00
2023-05-02T07:56:26.379Z,98544.00
2023-05-02T07:59:03.643Z,98549.00
2023-05-02T08:01:41.836Z,98553.00
2023-05-02T08:04:18.060Z,98545.00
2023-05-02T08:06:55.837Z,98551.00
2023-05-02T08:09:31.801Z,98566.00
2023-05-02T08:12:07.787Z,98565.00
2023-05-02T08:14:43.673Z,98567.00
2023-05-02T08:17:19.665Z,98576.00
2023-05-02T08:19:55.603Z,98589.00
2023-05-02T08:22:31.864Z,98577.00
2023-05-02T08:25:08.092Z,98576.00
2023-05-02T08:27:43.951Z,98578.00
2023-05-02T08:30:19.901Z,98578.00
2023-05-02T08:32:55.782Z,98573.00
2023-05-02T08:35:31.704Z,98576.00
2023-05-02T08:38:07.769Z,98576.00
2023-05-02T08:40:43.829Z,98580.00
2023-05-02T08:43:19.889Z,98583.00
2023-05-02T08:46:02.026Z,98587.00
2023-05-02T08:48:40.649Z,98582.00
2023-05-02T08:54:00.072Z,98577.00
2023-05-02T08:56:36.205Z,98582.00
2023-05-02T08:59:12.129Z,98586.00
2023-05-02T09:01:53.946Z,98585.00
2023-05-02T09:04:35.021Z,98593.00
2023-05-02T09:07:11.424Z,98589.00
2023-05-02T09:09:47.460Z,98594.00
2023-05-02T09:12:27.289Z,98587.00
2023-05-02T09:15:10.664Z,98592.00
2023-05-02T09:17:48.683Z,98603.00
2023-05-02T09:20:24.659Z,98598.00
2023-05-02T09:23:00.592Z,98608.00
2023-05-02T09:25:37.771Z,98601.00
2023-05-02T09:28:13.691Z,98596.00
2023-05-02T09:30:49.623Z,98595.00
2023-05-02T09:33:28.376Z,98596.00
2023-05-02T09:36:06.977Z,98601.00
2023-05-02T09:38:45.579Z,98602.00
2023-05-02T09:41:22.164Z,98597.00
2023-05-02T09:43:58.148Z,98601.00
2023-05-02T09:46:44.385Z,98598.00
2023-05-02T09:49:39.928Z,98596.00
2023-05-02T09:52:19.811Z,98598.00
2023-05-02T09:54:56.502Z,98602.00
2023-05-02T09:57:41.503Z,98599.00
2023-05-02T10:00:19.562Z,98606.00
2023-05-02T10:02:55.563Z,98602.00
2023-05-02T10:05:31.518Z,98594.00
2023-05-02T10:08:09.233Z,98597.00
2023-05-02T10:10:57.377Z,98606.00
2023-05-02T10:13:34.870Z,98599.00
2023-05-02T10:16:13.405Z,98611.00
2023-05-02T10:19:03.903Z,98606.00
2023-05-02T10:21:43.265Z,98604.00
2023-05-02T10:24:21.095Z,98605.00
2023-05-02T10:26:57.053Z,98610.00
2023-05-02T10:29:34.960Z,98612.00
2023-05-02T10:32:11.575Z,98594.00
2023-05-02T10:34:50.163Z,98594.00
2023-05-02T10:37:27.716Z,98592.00
2023-05-02T10:40:04.289Z,98604.00
2023-05-02T10:42:45.783Z,98602.00
2023-05-02T10:45:37.039Z,98592.00
2023-05-02T10:48:15.888Z,98587.00
2023-05-02T10:50:58.535Z,98590.00
2023-05-02T10:53:36.791Z,98572.00
2023-05-02T10:56:22.650Z,98573.00
2023-05-02T10:59:41.346Z,98578.00
2023-05-02T11:02:28.040Z,98580.00
2023-05-02T11:05:08.312Z,98573.00
2023-05-02T11:07:44.295Z,98585.00
2023-05-02T11:10:22.704Z,98577.00
2023-05-02T11:13:01.155Z,98580.00
2023-05-02T11:15:42.962Z,98573.00
2023-05-02T11:18:18.887Z,98573.00
2023-05-02T11:21:31.958Z,98575.00
2023-05-02T11:24:44.617Z,98580.00
2023-05-02T11:27:30.313Z,98582.00
2023-05-02T11:30:09.503Z,98577.00
2023-05-02T11:32:45.679Z,98577.00
2023-05-02T11:35:24.282Z,98576.00
2023-05-02T11:38:08.383Z,98581.00
2023-05-02T11:41:00.232Z,98574.00
2023-05-02T11:43:36.252Z,98577.00
2023-05-02T11:46:12.561Z,98571.00
2023-05-02T11:48:49.059Z,98573.00
2023-05-02T11:51:25.281Z,98557.00
2023-05-02T11:54:01.356Z,98575.00
2023-05-02T11:56:37.327Z,98566.00
2023-05-02T11:59:13.235Z,98564.00
2023-05-02T12:01:50.384Z,98565.00
2023-05-02T12:04:26.502Z,98565.00
2023-05-02T12:07:02.510Z,98564.00
2023-05-02T12:09:52.912Z,98562.00
2023-05-02T12:12:28.841Z,98566.00
2023-05-02T12:15:09.998Z,98565.00
2023-05-02T12:17:49.426Z,98572.00
2023-05-02T12:20:25.806Z,98583.00
2023-05-02T12:23:04.797Z,98576.00
2023-05-02T12:25:42.537Z,98578.00
2023-05-02T12:28:20.008Z,98583.00
2023-05-02T12:30:56.039Z,98589.00
2023-05-02T12:33:43.384Z,98592.00
2023-05-02T12:36:19.809Z,98584.00
2023-05-02T12:38:59.528Z,98590.00
2023-05-02T12:41:39.009Z,98582.00
2023-05-02T12:44:14.911Z,98589.00
2023-05-02T12:47:01.475Z,98584.00
2023-05-02T12:49:59.304Z,98584.00
2023-05-02T12:53:00.140Z,98588.00
2023-05-02T12:55:36.535Z,98593.00
2023-05-02T12:58:15.419Z,98598.00
2023-05-02T13:00:51.322Z,98592.00
2023-05-02T13:03:29.523Z,98596.00
2023-05-02T13:06:06.002Z,98592.00
2023-05-02T13:08:41.928Z,98586.00
2023-05-02T13:11:17.986Z,98594.00
2023-05-02T13:13:53.975Z,98593.00
2023-05-02T13:16:30.811Z,98594.00
2023-05-02T13:19:06.761Z,98585.00
2023-05-02T13:21:42.639Z,98583.00
2023-05-02T13:24:18.582Z,98588.00
2023-05-02T13:26:54.453Z,98588.00
2023-05-02T13:29:31.586Z,98588.00
2023-05-02T13:32:07.461Z,98581.00
2023-05-02T13:34:43.658Z,98589.00
2023-05-02T13:37:19.500Z,98582.00
2023-05-02T13:39:55.473Z,98579.00
2023-05-02T13:42:31.545Z,98580.00
2023-05-02T13:45:08.446Z,98567.00
2023-05-02T13:47:44.380Z,98582.00
2023-05-02T13:50:20.383Z,98578.00
2023-05-02T13:52:56.250Z,98575.00
2023-05-02T13:55:32.191Z,98575.00
2023-05-02T13:58:08.254Z,98578.00
2023-05-02T14:00:44.140Z,98580.00
2023-05-02T14:03:20.068Z,98574.00
2023-05-02T14:05:55.986Z,98576.00
2023-05-02T14:08:31.895Z,98587.00
2023-05-02T14:11:07.814Z,98572.00
2023-05-02T14:13:44.310Z,98569.00
2023-05-02T14:16:20.353Z,98579.00
2023-05-02T14:18:56.220Z,98575.00
2023-05-02T14:21:32.485Z,98572.00
2023-05-02T14:24:08.445Z,98574.00
2023-05-02T14:26:44.386Z,98577.00
2023-05-02T14:29:20.520Z,98571.00
2023-05-02T14:31:56.468Z,98578.00
2023-05-02T14:34:32.420Z,98572.00
2023-05-02T14:37:10.918Z,98571.00
2023-05-02T14:39:51.127Z,98576.00
2023-05-02T14:42:28.147Z,98576.00
2023-05-02T14:45:04.484Z,98576.00
2023-05-02T14:47:40.487Z,98571.00
2023-05-02T14:50:17.352Z,98583.00
2023-05-02T14:52:53.287Z,98574.00
2023-05-02T14:55:29.146Z,98590.00
2023-05-02T14:58:08.802Z,98578.00
2023-05-02T15:00:44.724Z,98583.00
2023-05-02T15:03:20.924Z,98584.00
2023-05-02T15:05:57.068Z,98578.00
2023-05-02T15:08:32.989Z,98574.00
2023-05-02T15:11:11.949Z,98589.00
2023-05-02T15:13:47.824Z,98588.00
2023-05-02T15:16:23.749Z,98586.00
2023-05-02T15:18:59.649Z,98586.00
2023-05-02T15:21:35.705Z,98592.00
2023-05-02T15:24:11.711Z,98594.00
2023-05-02T15:26:47.747Z,98596.00
2023-05-02T15:29:24.045Z,98595.00
2023-05-02T15:32:00.153Z,98592.00
2023-05-02T15:34:36.073Z,98597.00
2023-05-02T15:37:11.964Z,98591.00
2023-05-02T15:39:48.090Z,98592.00
2023-05-02T15:42:24.004Z,98595.00
2023-05-02T15:44:59.991Z,98600.00
2023-05-02T15:47:36.210Z,98599.00
2023-05-02T15:50:12.397Z,98594.00
2023-05-02T15:52:48.372Z,98601.00
2023-05-02T15:55:25.435Z,98606.00
2023-05-02T15:58:01.447Z,98597.00
2023-05-02T16:00:37.548Z,98603.00
2023-05-02T16:03:15.326Z,98595.00
2023-05-02T16:05:53.841Z,98602.00
2023-05-02T16:08:29.883Z,98604.00
2023-05-02T16:11:05.780Z,98603.00
2023-05-02T16:13:42.141Z,98616.00
2023-05-02T16:16:18.132Z,98609.00
2023-05-02T16:18:54.243Z,98615.00
2023-05-02T16:21:30.170Z,98615.00
2023-05-02T16:24:06.535Z,98611.00
2023-05-02T16:26:42.701Z,98612.00
2023-05-02T16:29:18.705Z,98611.00
2023-05-02T16:31:55.610Z,98607.00
2023-05-02T16:34:34.725Z,98610.00
2023-05-02T16:37:11.424Z,98616.00
2023-05-02T16:39:47.456Z,98622.00
2023-05-02T16:42:23.375Z,98625.00
2023-05-02T16:44:59.303Z,98621.00
2023-05-02T16:47:36.004Z,98622.00
2023-05-02T16:50:11.898Z,98626.00
2023-05-02T16:52:48.314Z,98619.00
2023-05-02T16:55:24.202Z,98636.00
2023-05-02T16:58:00.138Z,98629.00
2023-05-02T17:00:36.162Z,98627.00
2023-05-02T17:03:12.318Z,98629.00
2023-05-02T17:05:48.217Z,98623.00
2023-05-02T17:08:24.162Z,98632.00
2023-05-02T17:11:00.095Z,98627.00
2023-05-02T17:13:36.748Z,98622.00
2023-05-02T17:16:12.844Z,98625.00
2023-05-02T17:18:48.997Z,98630.00
2023-05-02T17:21:24.924Z,98631.00
2023-05-02T17:24:01.336Z,98637.00
2023-05-02T17:26:37.232Z,98631.00
2023-05-02T17:29:13.157Z,98645.00
2023-05-02T17:31:49.093Z,98640.00
2023-05-02T17:34:28.474Z,98641.00
2023-05-02T17:37:04.448Z,98639.00
2023-05-02T17:39:40.571Z,98633.00
2023-05-02T17:42:16.475Z,98642.00
2023-05-02T17:44:52.703Z,98651.00
2023-05-02T17:47:28.679Z,98648.00
2023-05-02T17:50:05.780Z,98652.00
2023-05-02T17:52:42.298Z,98650.00
2023-05-02T17:55:19.142Z,98660.00
2023-05-02T17:57:55.176Z,98668.00
2023-05-02T18:00:31.134Z,98666.00
2023-05-02T18:03:08.170Z,98672.00
2023-05-02T18:05:44.565Z,98670.00
2023-05-02T18:08:20.472Z,98674.00
2023-05-02T18:10:56.551Z,98684.00
2023-05-02T18:13:32.527Z,98688.00
2023-05-02T18:16:08.771Z,98690.00
2023-05-02T18:18:45.686Z,98693.00
2023-05-02T18:21:22.920Z,98704.00
2023-05-02T18:23:59.039Z,98701.00
2023-05-02T18:26:35.018Z,98702.00
2023-05-02T18:29:11.295Z,98709.00
2023-05-02T18:31:52.202Z,98717.00
2023-05-02T18:34:32.932Z,98717.00
2023-05-02T18:37:08.900Z,98718.00
2023-05-02T18:39:44.839Z,98713.00
2023-05-02T18:42:20.743Z,98729.00
2023-05-02T18:44:56.770Z,98720.00
2023-05-02T18:47:33.617Z,98726.00
2023-05-02T18:50:09.711Z,98738.00
2023-05-02T18:52:45.602Z,98730.00
2023-05-02T18:55:24.941Z,98744.00
2023-05-02T18:58:01.864Z,98744.00
2023-05-02T19:00:37.769Z,98743.00
2023-05-02T19:03:14.123Z,98741.00
2023-05-02T19:05:51.515Z,98737.00
2023-05-02T19:08:27.570Z,98732.00
2023-05-02T19:11:04.189Z,98749.00
2023-05-02T19:13:40.172Z,98758.00
2023-05-02T19:16:16.323Z,98753.00
2023-05-02T19:18:54.655Z,98751.00
2023-05-02T19:21:39.139Z,98750.00
2023-05-02T19:24:15.173Z,98758.00
2023-05-02T19:26:51.113Z,98761.00
2023-05-02T19:29:27.389Z,98766.00
2023-05-02T19:32:04.866Z,98773.00
2023-05-02T19:34:42.559Z,98773.00
2023-05-02T19:37:18.459Z,98779.00
2023-05-02T19:39:54.505Z,98773.00
2023-05-02T19:42:30.461Z,98784.00
2023-05-02T19:45:07.744Z,98788.00
2023-05-02T19:47:45.444Z,98796.00
2023-05-02T19:50:21.528Z,98799.00
2023-05-02T19:52:57.980Z,98798.00
2023-05-02T19:55:33.872Z,98799.00
2023-05-02T19:58:10.067Z,98802.00
2023-05-02T20:00:49.240Z,98805.00
2023-05-02T20:03:25.539Z,98812.00
2023-05-02T20:06:03.394Z,98803.00
2023-05-02T20:08:39.295Z,98815.00
2023-05-02T20:11:15.659Z,98816.00
2023-05-02T20:13:51.821Z,98818.00
2023-05-02T20:16:29.516Z,98821.00
2023-05-02T20:19:05.605Z,98823.00
2023-05-02T20:21:41.513Z,98827.00
2023-05-02T20:24:17.419Z,98828.00
2023-05-02T20:26:53.271Z,98841.00
2023-05-02T20:29:29.367Z,98834.00
2023-05-02T20:32:05.902Z,98845.00
2023-05-02T20:34:42.301Z,98840.00
2023-05-02T20:37:18.998Z,98847.00
2023-05-02T20:39:55.379Z,98846.00
2023-05-02T20:42:31.253Z,98853.00
2023-05-02T20:45:08.274Z,98848.00
2023-05-02T20:47:44.259Z,98847.00
2023-05-02T20:50:20.321Z,98851.00
2023-05-02T20:52:56.519Z,98847.00
2023-05-02T20:55:32.448Z,98841.00
2023-05-02T20:58:08.305Z,98840.00
2023-05-02T21:00:45.738Z,98842.00
2023-05-02T21:03:22.075Z,98839.00
2023-05-02T21:06:00.744Z,98838.00
2023-05-02T21:08:36.875Z,98835.00
2023-05-02T21:11:16.314Z,98839.00
2023-05-02T21:13:52.192Z,98843.00
2023-05-02T21:16:28.176Z,98841.00
2023-05-02T21:19:04.111Z,98841.00
2023-05-02T21:21:40.007Z,98852.00
2023-05-02T21:24:15.905Z,98847.00
2023-05-02T21:26:51.991Z,98842.00
2023-05-02T21:29:28.890Z,98847.00
2023-05-02T21:32:05.555Z,98845.00
2023-05-02T21:34:41.502Z,98853.00
2023-05-02T21:37:17.423Z,98842.00
2023-05-02T21:39:53.296Z,98849.00
2023-05-02T21:42:29.503Z,98849.00
2023-05-02T21:45:06.604Z,98857.00
2023-05-02T21:47:43.054Z,98854.00
2023-05-02T21:50:19.171Z,98857.00
2023-05-02T21:52:55.064Z,98854.00
2023-05-02T21:55:30.929Z,98854.00
2023-05-02T21:58:08.838Z,98852.00
2023-05-02T22:00:45.007Z,98854.00
2023-05-02T22:03:21.242Z,98850.00
2023-05-02T22:05:57.611Z,98861.00
2023-05-02T22:08:33.940Z,98849.00
2023-05-02T22:11:10.145Z,98849.00
2023-05-02T22:13:46.338Z,98858.00
2023-05-02T22:16:22.321Z,98851.00
2023-05-02T22:18:58.234Z,98862.00
2023-05-02T22:21:34.234Z,98860.00
2023-05-02T22:24:10.112Z,98859.00
2023-05-02T22:26:49.172Z,98869.00
2023-05-02T22:29:25.091Z,98860.00
2023-05-02T22:32:01.173Z,98862.00
2023-05-02T22:34:37.135Z,98852.00
2023-05-02T22:37:13.024Z,98861.00
2023-05-02T22:39:48.889Z,98861.00
2023-05-02T22:42:24.903Z,98858.00
2023-05-02T22:45:01.465Z,98860.00
2023-05-02T22:47:37.363Z,98866.00
2023-05-02T22:50:14.293Z,98862.00
2023-05-02T22:52:51.070Z,98862.00
2023-05-02T22:55:27.047Z,98862.00
2023-05-02T22:58:03.042Z,98864.00
2023-05-02T23:00:39.070Z,98867.00
2023-05-02T23:03:15.102Z,98862.00
2023-05-02T23:05:51.139Z,98869.00
2023-05-02T23:08:27.009Z,98873.00
2023-05-02T23:11:03.061Z,98870.00
2023-05-02T23:13:39.017Z,98875.00
2023-05-02T23:16:14.966Z,98878.00
2023-05-02T23:18:50.973Z,98877.00
2023-05-02T23:21:27.999Z,98873.00
2023-05-02T23:24:03.995Z,98878.00
2023-05-02T23:26:40.784Z,98872.00
2023-05-02T23:29:16.695Z,98873.00
2023-05-02T23:31:54.493Z,98878.00
2023-05-02T23:34:31.323Z,98876.00
2023-05-02T23:37:07.415Z,98875.00
2023-05-02T23:39:43.342Z,98885.00
2023-05-02T23:42:19.417Z,98881.00
2023-05-02T23:44:57.644Z,98885.00
2023-05-02T23:47:33.767Z,98884.00
2023-05-02T23:50:10.143Z,98883.00
2023-05-02T23:52:46.015Z,98883.00
2023-05-02T23:55:21.994Z,98880.00
2023-05-02T23:57:57.970Z,98881.00
